Terminal Aerodrome Forecast
Issued by NWS

Home | Current Version | Previous Version | Text Only | Print | Product List | Glossary Off
Versions: 1 2 3 4 5 6 7 8 9 10 11 12 13 14 15 16 17

556
FTUS43 KFGF 220520
TAFBJI
TAF
KBJI 220520Z 2206/2306 29005KT P6SM VCSH OVC010
     FM220700 29006KT P6SM VCSH OVC003
     FM221100 29007KT P6SM OVC003
     FM221400 30008KT P6SM OVC010
     FM230000 33008KT P6SM OVC020=

USA.gov is the U.S. government's official web portal to all federal, state and local government web resources and services.